sensor_id;sensor_type;location;lat;lon;timestamp;pressure;altitude;pressure_sealevel;temperature;humidity
64668;BME280;51077;42.716;23.344;2023-03-22T00:00:50;95025.34;;;13.44;56.93
64668;BME280;51077;42.716;23.344;2023-03-22T00:03:16;95019.81;;;13.44;56.80
64668;BME280;51077;42.716;23.344;2023-03-22T00:05:41;95015.59;;;13.43;56.83
64668;BME280;51077;42.716;23.344;2023-03-22T00:08:08;95017.59;;;13.42;57.05
64668;BME280;51077;42.716;23.344;2023-03-22T00:10:36;95022.38;;;13.42;57.10
64668;BME280;51077;42.716;23.344;2023-03-22T00:13:03;95023.13;;;13.42;56.86
64668;BME280;51077;42.716;23.344;2023-03-22T00:15:28;95022.38;;;13.42;56.94
64668;BME280;51077;42.716;23.344;2023-03-22T00:17:57;95027.34;;;13.43;56.75
64668;BME280;51077;42.716;23.344;2023-03-22T00:20:27;95014.84;;;13.42;56.98
64668;BME280;51077;42.716;23.344;2023-03-22T00:22:57;95018.34;;;13.43;57.04
64668;BME280;51077;42.716;23.344;2023-03-22T00:25:23;95014.13;;;13.42;56.96
64668;BME280;51077;42.716;23.344;2023-03-22T00:27:48;95014.84;;;13.42;57.08
64668;BME280;51077;42.716;23.344;2023-03-22T00:30:14;95012.09;;;13.42;56.84
64668;BME280;51077;42.716;23.344;2023-03-22T00:32:40;95010.81;;;13.43;56.99
64668;BME280;51077;42.716;23.344;2023-03-22T00:35:07;95006.59;;;13.42;57.08
64668;BME280;51077;42.716;23.344;2023-03-22T00:37:33;95006.59;;;13.42;57.15
64668;BME280;51077;42.716;23.344;2023-03-22T00:40:04;95006.59;;;13.42;56.97
64668;BME280;51077;42.716;23.344;2023-03-22T00:42:34;95006.38;;;13.40;57.01
64668;BME280;51077;42.716;23.344;2023-03-22T00:44:59;94998.63;;;13.39;57.19
64668;BME280;51077;42.716;23.344;2023-03-22T00:47:25;94996.63;;;13.39;57.25
64668;BME280;51077;42.716;23.344;2023-03-22T00:49:50;94996.44;;;13.37;57.15
64668;BME280;51077;42.716;23.344;2023-03-22T00:52:15;95000.44;;;13.36;57.14
64668;BME280;51077;42.716;23.344;2023-03-22T00:54:41;94996.94;;;13.36;57.28
64668;BME280;51077;42.716;23.344;2023-03-22T00:57:06;94996.22;;;13.35;57.29
64668;BME280;51077;42.716;23.344;2023-03-22T00:59:32;94991.75;;;13.32;57.69
64668;BME280;51077;42.716;23.344;2023-03-22T01:02:03;94991.56;;;13.30;57.52
64668;BME280;51077;42.716;23.344;2023-03-22T01:04:29;94989.38;;;13.28;57.59
64668;BME280;51077;42.716;23.344;2023-03-22T01:06:55;95001.13;;;13.29;57.68
64668;BME280;51077;42.716;23.344;2023-03-22T01:09:25;94986.94;;;13.25;57.82
64668;BME280;51077;42.716;23.344;2023-03-22T01:11:54;94994.25;;;13.22;57.88
64668;BME280;51077;42.716;23.344;2023-03-22T01:14:21;94992.75;;;13.21;57.83
64668;BME280;51077;42.716;23.344;2023-03-22T01:16:47;94983.53;;;13.19;57.75
64668;BME280;51077;42.716;23.344;2023-03-22T01:19:12;94983.34;;;13.17;57.90
64668;BME280;51077;42.716;23.344;2023-03-22T01:21:38;94981.84;;;13.16;58.11
64668;BME280;51077;42.716;23.344;2023-03-22T01:24:03;94976.13;;;13.14;58.06
64668;BME280;51077;42.716;23.344;2023-03-22T01:26:29;94979.44;;;13.12;58.29
64668;BME280;51077;42.716;23.344;2023-03-22T01:28:54;94979.97;;;13.11;58.33
64668;BME280;51077;42.716;23.344;2023-03-22T01:31:20;94982.50;;;13.08;58.21
64668;BME280;51077;42.716;23.344;2023-03-22T01:33:45;94976.06;;;13.06;58.38
64668;BME280;51077;42.716;23.344;2023-03-22T01:36:10;94970.88;;;13.02;58.42
64668;BME280;51077;42.716;23.344;2023-03-22T01:38:36;94973.41;;;13.00;58.33
64668;BME280;51077;42.716;23.344;2023-03-22T01:41:01;94968.25;;;12.97;58.84
64668;BME280;51077;42.716;23.344;2023-03-22T01:43:27;94978.53;;;12.96;58.73
64668;BME280;51077;42.716;23.344;2023-03-22T01:45:53;94966.75;;;12.96;58.78
64668;BME280;51077;42.716;23.344;2023-03-22T01:51:11;94970.81;;;12.95;58.59
64668;BME280;51077;42.716;23.344;2023-03-22T01:54:08;94970.06;;;12.94;58.80
64668;BME280;51077;42.716;23.344;2023-03-22T01:56:35;94961.06;;;12.94;58.74
64668;BME280;51077;42.716;23.344;2023-03-22T01:59:02;94967.63;;;12.91;58.78
64668;BME280;51077;42.716;23.344;2023-03-22T02:01:28;94966.91;;;12.90;58.86
64668;BME280;51077;42.716;23.344;2023-03-22T02:03:57;94973.69;;;12.89;58.63
64668;BME280;51077;42.716;23.344;2023-03-22T02:06:24;94974.19;;;12.88;59.02
64668;BME280;51077;42.716;23.344;2023-03-22T02:08:50;94978.25;;;12.87;58.82
64668;BME280;51077;42.716;23.344;2023-03-22T02:11:43;94970.50;;;12.85;58.97
64668;BME280;51077;42.716;23.344;2023-03-22T02:40:16;94980.47;;;12.75;59.07
64668;BME280;51077;42.716;23.344;2023-03-22T02:46:21;94995.53;;;12.74;59.26
64668;BME280;51077;42.716;23.344;2023-03-22T02:51:30;94994.06;;;12.73;59.08
64668;BME280;51077;42.716;23.344;2023-03-22T02:56:41;94995.84;;;12.70;59.26
64668;BME280;51077;42.716;23.344;2023-03-22T02:59:10;94992.59;;;12.72;59.30
64668;BME280;51077;42.716;23.344;2023-03-22T03:01:56;94991.06;;;12.71;59.17
64668;BME280;51077;42.716;23.344;2023-03-22T03:04:35;94994.06;;;12.73;59.26
64668;BME280;51077;42.716;23.344;2023-03-22T03:07:05;94993.31;;;12.72;59.15
64668;BME280;51077;42.716;23.344;2023-03-22T03:09:34;94989.81;;;12.72;59.16
64668;BME280;51077;42.716;23.344;2023-03-22T03:12:00;94991.06;;;12.71;58.99
64668;BME280;51077;42.716;23.344;2023-03-22T03:14:29;94991.06;;;12.71;59.07
64668;BME280;51077;42.716;23.344;2023-03-22T03:20:21;94997.13;;;12.69;59.31
64668;BME280;51077;42.716;23.344;2023-03-22T03:25:37;95000.63;;;12.70;59.14
64668;BME280;51077;42.716;23.344;2023-03-22T03:30:46;94994.19;;;12.67;59.12
64668;BME280;51077;42.716;23.344;2023-03-22T03:33:14;95000.50;;;12.62;59.61
64668;BME280;51077;42.716;23.344;2023-03-22T03:36:02;95008.78;;;12.62;59.32
64668;BME280;51077;42.716;23.344;2023-03-22T03:38:33;95001.06;;;12.61;59.58
64668;BME280;51077;42.716;23.344;2023-03-22T03:41:16;95000.88;;;12.58;59.48
64668;BME280;51077;42.716;23.344;2023-03-22T03:43:44;95007.41;;;12.55;59.74
64668;BME280;51077;42.716;23.344;2023-03-22T03:46:11;95009.94;;;12.53;59.61
64668;BME280;51077;42.716;23.344;2023-03-22T03:48:39;95007.75;;;12.52;59.77
64668;BME280;51077;42.716;23.344;2023-03-22T03:51:06;95004.78;;;12.50;59.75
64668;BME280;51077;42.716;23.344;2023-03-22T03:53:32;95010.81;;;12.48;59.88
64668;BME280;51077;42.716;23.344;2023-03-22T03:55:58;95005.84;;;12.47;59.80
64668;BME280;51077;42.716;23.344;2023-03-22T03:58:23;95013.38;;;12.46;59.87
64668;BME280;51077;42.716;23.344;2023-03-22T04:00:49;95016.84;;;12.47;59.75
64668;BME280;51077;42.716;23.344;2023-03-22T04:03:15;95020.16;;;12.45;60.01
64668;BME280;51077;42.716;23.344;2023-03-22T04:05:40;95013.88;;;12.45;60.03
64668;BME280;51077;42.716;23.344;2023-03-22T04:08:06;95020.34;;;12.47;59.95
64668;BME280;51077;42.716;23.344;2023-03-22T04:10:31;95020.16;;;12.45;59.88
64668;BME280;51077;42.716;23.344;2023-03-22T04:12:57;95020.16;;;12.45;59.82
64668;BME280;51077;42.716;23.344;2023-03-22T04:15:22;95029.66;;;12.44;59.71
64668;BME280;51077;42.716;23.344;2023-03-22T04:17:49;95028.41;;;12.45;59.81
64668;BME280;51077;42.716;23.344;2023-03-22T04:20:15;95024.16;;;12.44;59.75
64668;BME280;51077;42.716;23.344;2023-03-22T04:22:41;95025.44;;;12.43;59.84
64668;BME280;51077;42.716;23.344;2023-03-22T04:25:09;95024.88;;;12.45;59.94
64668;BME280;51077;42.716;23.344;2023-03-22T04:27:40;95025.97;;;12.42;59.92
64668;BME280;51077;42.716;23.344;2023-03-22T04:30:13;95025.44;;;12.43;60.05
64668;BME280;51077;42.716;23.344;2023-03-22T04:32:44;95028.19;;;12.43;60.02
64668;BME280;51077;42.716;23.344;2023-03-22T04:35:09;95026.69;;;12.42;59.79
64668;BME280;51077;42.716;23.344;2023-03-22T04:37:35;95028.19;;;12.43;60.02
64668;BME280;51077;42.716;23.344;2023-03-22T04:40:01;95030.38;;;12.45;60.91
64668;BME280;51077;42.716;23.344;2023-03-22T04:42:30;95033.38;;;12.47;60.71
64668;BME280;51077;42.716;23.344;2023-03-22T04:44:55;95037.59;;;12.48;60.89
64668;BME280;51077;42.716;23.344;2023-03-22T04:47:20;95030.06;;;12.48;60.73
64668;BME280;51077;42.716;23.344;2023-03-22T04:49:46;95034.31;;;12.49;60.79
64668;BME280;51077;42.716;23.344;2023-03-22T04:52:11;95038.34;;;12.48;60.73
64668;BME280;51077;42.716;23.344;2023-03-22T04:54:36;95042.38;;;12.47;60.76
64668;BME280;51077;42.716;23.344;2023-03-22T04:57:02;95041.09;;;12.48;60.42
64668;BME280;51077;42.716;23.344;2023-03-22T04:59:28;95048.06;;;12.49;60.66
64668;BME280;51077;42.716;23.344;2023-03-22T05:01:53;95046.09;;;12.50;60.55
64668;BME280;51077;42.716;23.344;2023-03-22T05:04:19;95048.06;;;12.49;60.58
64668;BME280;51077;42.716;23.344;2023-03-22T05:06:45;95057.09;;;12.50;60.54
64668;BME280;51077;42.716;23.344;2023-03-22T05:09:11;95055.06;;;12.50;60.33
64668;BME280;51077;42.716;23.344;2023-03-22T05:11:37;95056.31;;;12.49;60.33
64668;BME280;51077;42.716;23.344;2023-03-22T05:14:03;95059.06;;;12.49;60.40
64668;BME280;51077;42.716;23.344;2023-03-22T05:16:28;95057.59;;;12.48;60.30
64668;BME280;51077;42.716;23.344;2023-03-22T05:18:54;95061.84;;;12.49;60.25
64668;BME280;51077;42.716;23.344;2023-03-22T05:21:21;95066.59;;;12.49;60.38
64668;BME280;51077;42.716;23.344;2023-03-22T05:23:56;95074.84;;;12.49;60.21
64668;BME280;51077;42.716;23.344;2023-03-22T05:26:23;95075.41;;;12.47;60.33
64668;BME280;51077;42.716;23.344;2023-03-22T05:28:54;95075.94;;;12.46;60.26
64668;BME280;51077;42.716;23.344;2023-03-22T05:31:20;95075.41;;;12.47;60.32
64668;BME280;51077;42.716;23.344;2023-03-22T05:33:47;95073.38;;;12.48;60.19
64668;BME280;51077;42.716;23.344;2023-03-22T05:36:15;95081.63;;;12.48;60.16
64668;BME280;51077;42.716;23.344;2023-03-22T05:38:40;95085.13;;;12.48;60.16
64668;BME280;51077;42.716;23.344;2023-03-22T05:41:06;95087.38;;;12.50;60.19
64668;BME280;51077;42.716;23.344;2023-03-22T05:43:31;95077.28;;;12.52;60.01
64668;BME280;51077;42.716;23.344;2023-03-22T05:45:57;95076.03;;;12.53;60.10
64668;BME280;51077;42.716;23.344;2023-03-22T05:48:22;95082.28;;;12.54;60.14
64668;BME280;51077;42.716;23.344;2023-03-22T05:50:48;95081.00;;;12.55;60.03
64668;BME280;51077;42.716;23.344;2023-03-22T05:53:13;95082.50;;;12.56;59.87
64668;BME280;51077;42.716;23.344;2023-03-22T05:55:38;95088.19;;;12.58;59.90
64668;BME280;51077;42.716;23.344;2023-03-22T05:58:04;95095.94;;;12.60;59.94
64668;BME280;51077;42.716;23.344;2023-03-22T06:00:30;95091.91;;;12.61;59.60
64668;BME280;51077;42.716;23.344;2023-03-22T06:02:59;95091.91;;;12.61;59.75
64668;BME280;51077;42.716;23.344;2023-03-22T06:05:29;95095.63;;;12.63;59.65
64668;BME280;51077;42.716;23.344;2023-03-22T06:07:56;95098.38;;;12.63;59.51
64668;BME280;51077;42.716;23.344;2023-03-22T06:10:21;95097.84;;;12.65;59.60
64668;BME280;51077;42.716;23.344;2023-03-22T06:12:48;95101.13;;;12.63;59.58
64668;BME280;51077;42.716;23.344;2023-03-22T06:15:14;95103.56;;;12.67;59.68
64668;BME280;51077;42.716;23.344;2023-03-22T06:17:39;95106.53;;;12.69;59.73
64668;BME280;51077;42.716;23.344;2023-03-22T06:20:06;95110.75;;;12.70;59.69
64668;BME280;51077;42.716;23.344;2023-03-22T06:22:36;95103.25;;;12.70;59.50
64668;BME280;51077;42.716;23.344;2023-03-22T06:25:01;95114.47;;;12.72;59.45
64668;BME280;51077;42.716;23.344;2023-03-22T06:27:27;95105.91;;;12.76;59.39
64668;BME280;51077;42.716;23.344;2023-03-22T06:29:52;95113.09;;;12.79;59.60
64668;BME280;51077;42.716;23.344;2023-03-22T06:32:19;95114.78;;;12.82;59.73
64668;BME280;51077;42.716;23.344;2023-03-22T06:34:50;95119.25;;;12.85;59.20
64668;BME280;51077;42.716;23.344;2023-03-22T06:37:16;95108.66;;;12.89;59.25
64668;BME280;51077;42.716;23.344;2023-03-22T06:39:41;95110.88;;;12.91;59.03
64668;BME280;51077;42.716;23.344;2023-03-22T06:42:07;95120.28;;;12.95;59.09
64668;BME280;51077;42.716;23.344;2023-03-22T06:44:32;95122.00;;;12.98;59.09
64668;BME280;51077;42.716;23.344;2023-03-22T06:46:57;95115.41;;;13.01;58.89
64668;BME280;51077;42.716;23.344;2023-03-22T06:49:23;95118.06;;;13.07;58.79
64668;BME280;51077;42.716;23.344;2023-03-22T06:51:48;95126.00;;;13.11;58.89
64668;BME280;51077;42.716;23.344;2023-03-22T06:54:14;95127.91;;;13.16;58.66
64668;BME280;51077;42.716;23.344;2023-03-22T06:56:40;95123.56;;;13.20;58.52
64668;BME280;51077;42.716;23.344;2023-03-22T06:59:06;95129.72;;;13.26;58.52
64668;BME280;51077;42.716;23.344;2023-03-22T07:01:31;95133.63;;;13.31;58.50
64668;BME280;51077;42.716;23.344;2023-03-22T07:03:57;95136.47;;;13.39;58.53
64668;BME280;51077;42.716;23.344;2023-03-22T07:06:22;95137.09;;;13.45;58.39
64668;BME280;51077;42.716;23.344;2023-03-22T07:08:47;95144.50;;;13.50;58.13
64668;BME280;51077;42.716;23.344;2023-03-22T07:11:13;95140.16;;;13.54;58.10
64668;BME280;51077;42.716;23.344;2023-03-22T07:13:38;95142.03;;;13.60;57.93
64668;BME280;51077;42.716;23.344;2023-03-22T07:16:04;95147.25;;;13.63;57.80
64668;BME280;51077;42.716;23.344;2023-03-22T07:18:29;95150.91;;;13.66;57.65
64668;BME280;51077;42.716;23.344;2023-03-22T07:20:55;95153.91;;;13.68;57.65
64668;BME280;51077;42.716;23.344;2023-03-22T07:23:21;95155.56;;;13.71;57.59
64668;BME280;51077;42.716;23.344;2023-03-22T07:25:48;95161.31;;;13.73;57.62
64668;BME280;51077;42.716;23.344;2023-03-22T07:28:14;95159.09;;;13.71;57.70
64668;BME280;51077;42.716;23.344;2023-03-22T07:30:40;95153.78;;;13.73;57.50
64668;BME280;51077;42.716;23.344;2023-03-22T07:33:07;95162.25;;;13.75;57.46
64668;BME280;51077;42.716;23.344;2023-03-22T07:35:34;95169.03;;;13.74;57.39
64668;BME280;51077;42.716;23.344;2023-03-22T07:38:01;95162.78;;;13.74;57.45
64668;BME280;51077;42.716;23.344;2023-03-22T07:40:27;95168.84;;;13.72;57.34
64668;BME280;51077;42.716;23.344;2023-03-22T07:42:53;95168.63;;;13.70;57.34
64668;BME280;51077;42.716;23.344;2023-03-22T07:45:20;95169.16;;;13.69;57.57
64668;BME280;51077;42.716;23.344;2023-03-22T07:47:46;95173.22;;;13.68;57.54
64668;BME280;51077;42.716;23.344;2023-03-22T07:50:13;95173.72;;;13.66;57.66
64668;BME280;51077;42.716;23.344;2023-03-22T07:52:43;95180.53;;;13.65;57.55
64668;BME280;51077;42.716;23.344;2023-03-22T07:55:10;95178.81;;;13.62;57.63
64668;BME280;51077;42.716;23.344;2023-03-22T07:57:37;95178.94;;;13.56;57.57
64668;BME280;51077;42.716;23.344;2023-03-22T08:00:04;95178.75;;;13.54;57.69
64668;BME280;51077;42.716;23.344;2023-03-22T08:02:30;95180.56;;;13.52;58.03
64668;BME280;51077;42.716;23.344;2023-03-22T08:04:56;95176.84;;;13.49;57.92
64668;BME280;51077;42.716;23.344;2023-03-22T08:07:22;95181.63;;;13.49;57.89
64668;BME280;51077;42.716;23.344;2023-03-22T08:09:49;95187.66;;;13.47;58.08
64668;BME280;51077;42.716;23.344;2023-03-22T08:12:14;95179.41;;;13.47;58.16
64668;BME280;51077;42.716;23.344;2023-03-22T08:14:40;95178.66;;;13.47;58.04
64668;BME280;51077;42.716;23.344;2023-03-22T08:17:05;95177.94;;;13.46;58.05
64668;BME280;51077;42.716;23.344;2023-03-22T08:19:32;95181.63;;;13.49;58.05
64668;BME280;51077;42.716;23.344;2023-03-22T08:21:58;95182.34;;;13.49;58.00
64668;BME280;51077;42.716;23.344;2023-03-22T08:24:24;95182.34;;;13.49;57.91
64668;BME280;51077;42.716;23.344;2023-03-22T08:26:50;95183.63;;;13.48;58.06
64668;BME280;51077;42.716;23.344;2023-03-22T08:29:15;95195.41;;;13.49;57.99
64668;BME280;51077;42.716;23.344;2023-03-22T08:31:42;95192.63;;;13.49;58.03
64668;BME280;51077;42.716;23.344;2023-03-22T08:34:07;95187.13;;;13.49;58.05
64668;BME280;51077;42.716;23.344;2023-03-22T08:36:33;95196.91;;;13.50;58.05
64668;BME280;51077;42.716;23.344;2023-03-22T08:38:58;95188.63;;;13.50;58.03
64668;BME280;51077;42.716;23.344;2023-03-22T08:41:23;95197.66;;;13.50;57.95
64668;BME280;51077;42.716;23.344;2023-03-22T08:43:49;95203.34;;;13.52;58.06
64668;BME280;51077;42.716;23.344;2023-03-22T08:46:15;95201.34;;;13.53;57.99
64668;BME280;51077;42.716;23.344;2023-03-22T08:48:40;95201.00;;;13.56;57.97
64668;BME280;51077;42.716;23.344;2023-03-22T08:51:06;95207.50;;;13.59;57.92
64668;BME280;51077;42.716;23.344;2023-03-22T08:53:31;95200.69;;;13.60;57.70
64668;BME280;51077;42.716;23.344;2023-03-22T08:55:57;95201.66;;;13.63;57.74
64668;BME280;51077;42.716;23.344;2023-03-22T08:58:26;95201.09;;;13.64;57.63
64668;BME280;51077;42.716;23.344;2023-03-22T09:00:52;95208.31;;;13.67;57.81
64668;BME280;51077;42.716;23.344;2023-03-22T09:03:18;95205.03;;;13.69;57.50
64668;BME280;51077;42.716;23.344;2023-03-22T09:05:43;95206.50;;;13.70;57.49
64668;BME280;51077;42.716;23.344;2023-03-22T09:08:09;95209.47;;;13.72;57.42
64668;BME280;51077;42.716;23.344;2023-03-22T09:10:37;95204.69;;;13.72;57.51
64668;BME280;51077;42.716;23.344;2023-03-22T09:13:03;95218.50;;;13.72;57.49
64668;BME280;51077;42.716;23.344;2023-03-22T09:15:28;95210.41;;;13.74;57.44
64668;BME280;51077;42.716;23.344;2023-03-22T09:17:53;95211.69;;;13.73;57.50
64668;BME280;51077;42.716;23.344;2023-03-22T09:20:19;95215.94;;;13.74;57.38
64668;BME280;51077;42.716;23.344;2023-03-22T09:22:49;95224.19;;;13.74;57.36
64668;BME280;51077;42.716;23.344;2023-03-22T09:25:15;95224.94;;;13.75;57.44
64668;BME280;51077;42.716;23.344;2023-03-22T09:27:40;95212.44;;;13.74;57.51
64668;BME280;51077;42.716;23.344;2023-03-22T09:30:06;95214.66;;;13.75;57.68
64668;BME280;51077;42.716;23.344;2023-03-22T09:32:32;95220.94;;;13.76;57.51
64668;BME280;51077;42.716;23.344;2023-03-22T09:34:57;95218.91;;;13.76;57.70
64668;BME280;51077;42.716;23.344;2023-03-22T09:37:22;95211.38;;;13.77;57.56
64668;BME280;51077;42.716;23.344;2023-03-22T09:39:57;95217.09;;;13.79;57.53
64668;BME280;51077;42.716;23.344;2023-03-22T09:42:45;95221.31;;;13.80;57.49
64668;BME280;51077;42.716;23.344;2023-03-22T09:45:17;95218.03;;;13.81;57.59
64668;BME280;51077;42.716;23.344;2023-03-22T09:47:53;95214.75;;;13.83;57.37
64668;BME280;51077;42.716;23.344;2023-03-22T09:50:28;95214.97;;;13.85;57.39
64668;BME280;51077;42.716;23.344;2023-03-22T09:52:54;95218.97;;;13.84;57.40
64668;BME280;51077;42.716;23.344;2023-03-22T09:55:26;95213.88;;;13.88;57.57
64668;BME280;51077;42.716;23.344;2023-03-22T09:58:05;95208.78;;;13.92;57.19
64668;BME280;51077;42.716;23.344;2023-03-22T10:06:20;95214.06;;;14.03;56.99
64668;BME280;51077;42.716;23.344;2023-03-22T10:08:58;95223.81;;;14.04;57.04
64668;BME280;51077;42.716;23.344;2023-03-22T10:14:38;95231.03;;;14.07;57.03
64668;BME280;51077;42.716;23.344;2023-03-22T10:17:09;95232.31;;;14.06;56.98
64668;BME280;51077;42.716;23.344;2023-03-22T10:19:49;95231.75;;;14.08;56.72
64668;BME280;51077;42.716;23.344;2023-03-22T10:22:21;95238.56;;;14.07;56.99
64668;BME280;51077;42.716;23.344;2023-03-22T10:24:50;95236.31;;;14.05;57.06
64668;BME280;51077;42.716;23.344;2023-03-22T10:27:19;95236.31;;;14.05;56.98
64668;BME280;51077;42.716;23.344;2023-03-22T10:29:58;95239.31;;;14.07;56.88
64668;BME280;51077;42.716;23.344;2023-03-22T10:32:29;95231.03;;;14.07;57.04
64668;BME280;51077;42.716;23.344;2023-03-22T10:34:58;95223.47;;;14.08;56.93
64668;BME280;51077;42.716;23.344;2023-03-22T10:37:31;95229.97;;;14.11;56.87
64668;BME280;51077;42.716;23.344;2023-03-22T10:39:59;95231.94;;;14.10;56.87
64668;BME280;51077;42.716;23.344;2023-03-22T10:42:28;95224.44;;;14.11;56.68
64668;BME280;51077;42.716;23.344;2023-03-22T10:45:02;95221.88;;;14.13;56.72
64668;BME280;51077;42.716;23.344;2023-03-22T10:47:35;95222.59;;;14.13;56.78
64668;BME280;51077;42.716;23.344;2023-03-22T10:50:05;95226.09;;;14.14;56.76
64668;BME280;51077;42.716;23.344;2023-03-22T10:52:50;95227.59;;;14.15;56.58
64668;BME280;51077;42.716;23.344;2023-03-22T10:55:19;95222.81;;;14.15;56.67
64668;BME280;51077;42.716;23.344;2023-03-22T10:57:56;95227.59;;;14.15;56.61
64668;BME280;51077;42.716;23.344;2023-03-22T11:00:23;95220.06;;;14.15;56.58
64668;BME280;51077;42.716;23.344;2023-03-22T11:02:57;95218.03;;;14.16;56.51
64668;BME280;51077;42.716;23.344;2023-03-22T11:05:24;95218.78;;;14.16;56.40
64668;BME280;51077;42.716;23.344;2023-03-22T11:07:51;95225.03;;;14.17;56.44
64668;BME280;51077;42.716;23.344;2023-03-22T11:13:18;95222.47;;;14.19;56.35
64668;BME280;51077;42.716;23.344;2023-03-22T11:15:51;95229.50;;;14.20;56.41
64668;BME280;51077;42.716;23.344;2023-03-22T11:18:17;95221.94;;;14.20;56.34
64668;BME280;51077;42.716;23.344;2023-03-22T11:20:58;95222.47;;;14.19;56.28
64668;BME280;51077;42.716;23.344;2023-03-22T11:23:25;95224.50;;;14.18;56.31
64668;BME280;51077;42.716;23.344;2023-03-22T11:25:55;95214.75;;;14.17;56.47
64668;BME280;51077;42.716;23.344;2023-03-22T11:28:27;95207.75;;;14.16;56.32
64668;BME280;51077;42.716;23.344;2023-03-22T11:31:11;95211.25;;;14.17;56.30
64668;BME280;51077;42.716;23.344;2023-03-22T11:33:44;95207.00;;;14.16;56.27
64668;BME280;51077;42.716;23.344;2023-03-22T11:36:18;95213.78;;;14.15;56.36
64668;BME280;51077;42.716;23.344;2023-03-22T11:38:44;95211.78;;;14.15;56.30
64668;BME280;51077;42.716;23.344;2023-03-22T11:41:21;95212.13;;;14.12;56.33
64668;BME280;51077;42.716;23.344;2023-03-22T11:43:55;95203.84;;;14.12;56.22
64668;BME280;51077;42.716;23.344;2023-03-22T11:46:22;95213.19;;;14.08;56.31
64668;BME280;51077;42.716;23.344;2023-03-22T11:48:52;95209.13;;;14.09;56.31
64668;BME280;51077;42.716;23.344;2023-03-22T11:51:30;95206.59;;;14.12;56.24
64668;BME280;51077;42.716;23.344;2023-03-22T11:54:14;95207.13;;;14.10;56.38
64668;BME280;51077;42.716;23.344;2023-03-22T11:56:47;95208.63;;;14.11;56.30
64668;BME280;51077;42.716;23.344;2023-03-22T11:59:27;95211.38;;;14.11;56.20
64668;BME280;51077;42.716;23.344;2023-03-22T12:04:42;95209.88;;;14.10;56.16
64668;BME280;51077;42.716;23.344;2023-03-22T12:07:19;95209.34;;;14.12;56.04
64668;BME280;51077;42.716;23.344;2023-03-22T12:09:53;95213.41;;;14.11;56.12
64668;BME280;51077;42.716;23.344;2023-03-22T12:12:26;95200.34;;;14.11;55.97
64668;BME280;51077;42.716;23.344;2023-03-22T12:15:01;95208.47;;;14.17;55.90
64668;BME280;51077;42.716;23.344;2023-03-22T12:22:56;95197.38;;;14.30;55.53
64668;BME280;51077;42.716;23.344;2023-03-22T12:25:28;95196.16;;;14.39;55.39
64668;BME280;51077;42.716;23.344;2023-03-22T12:27:59;95201.75;;;14.46;55.37
64668;BME280;51077;42.716;23.344;2023-03-22T12:30:30;95197.06;;;14.54;54.93
64668;BME280;51077;42.716;23.344;2023-03-22T12:33:00;95188.31;;;14.64;54.99
64668;BME280;51077;42.716;23.344;2023-03-22T12:35:30;95196.28;;;14.75;54.84
64668;BME280;51077;42.716;23.344;2023-03-22T12:37:58;95195.63;;;14.82;54.61
64668;BME280;51077;42.716;23.344;2023-03-22T12:40:36;95194.56;;;14.93;54.33
64668;BME280;51077;42.716;23.344;2023-03-22T12:43:16;95183.59;;;15.00;54.17
64668;BME280;51077;42.716;23.344;2023-03-22T12:45:49;95184.56;;;15.11;53.91
64668;BME280;51077;42.716;23.344;2023-03-22T12:50:59;95190.75;;;15.24;53.56
64668;BME280;51077;42.716;23.344;2023-03-22T12:53:29;95186.88;;;15.27;53.59
64668;BME280;51077;42.716;23.344;2023-03-22T12:55:58;95191.88;;;15.29;53.51
64668;BME280;51077;42.716;23.344;2023-03-22T12:58:25;95185.59;;;15.28;53.51
64668;BME280;51077;42.716;23.344;2023-03-22T13:00:55;95187.06;;;15.29;53.34
64668;BME280;51077;42.716;23.344;2023-03-22T13:03:35;95182.63;;;15.26;53.63
64668;BME280;51077;42.716;23.344;2023-03-22T13:06:26;95185.72;;;15.23;53.46
64668;BME280;51077;42.716;23.344;2023-03-22T13:09:04;95187.19;;;15.16;53.72
64668;BME280;51077;42.716;23.344;2023-03-22T13:11:37;95186.78;;;15.12;53.94
64668;BME280;51077;42.716;23.344;2023-03-22T13:14:03;95184.91;;;15.07;53.92
64668;BME280;51077;42.716;23.344;2023-03-22T13:16:52;95181.03;;;15.02;54.08
64668;BME280;51077;42.716;23.344;2023-03-22T13:19:35;95183.41;;;14.98;54.30
64668;BME280;51077;42.716;23.344;2023-03-22T13:28:02;95178.56;;;14.91;54.38
64668;BME280;51077;42.716;23.344;2023-03-22T13:30:48;95184.28;;;14.93;54.35
64668;BME280;51077;42.716;23.344;2023-03-22T13:33:27;95174.88;;;14.96;54.40
64668;BME280;51077;42.716;23.344;2023-03-22T13:36:02;95176.97;;;15.03;54.30
64668;BME280;51077;42.716;23.344;2023-03-22T13:38:36;95171.69;;;15.13;53.95
64668;BME280;51077;42.716;23.344;2023-03-22T13:43:35;95174.75;;;15.38;53.46
64668;BME280;51077;42.716;23.344;2023-03-22T13:59:30;95172.47;;;16.24;52.06
64668;BME280;51077;42.716;23.344;2023-03-22T14:05:21;95175.06;;;16.30;51.64
64668;BME280;51077;42.716;23.344;2023-03-22T14:07:55;95170.81;;;16.29;51.89
64668;BME280;51077;42.716;23.344;2023-03-22T14:10:25;95169.50;;;16.22;51.88
64668;BME280;51077;42.716;23.344;2023-03-22T14:13:05;95173.38;;;16.19;51.58
64668;BME280;51077;42.716;23.344;2023-03-22T14:15:40;95178.56;;;16.15;51.71
64668;BME280;51077;42.716;23.344;2023-03-22T14:18:27;95177.41;;;16.11;51.95
64668;BME280;51077;42.716;23.344;2023-03-22T14:20:56;95177.59;;;16.05;52.11
64668;BME280;51077;42.716;23.344;2023-03-22T14:23:25;95177.94;;;16.01;52.23
64668;BME280;51077;42.716;23.344;2023-03-22T14:25:56;95181.09;;;15.98;52.22
64668;BME280;51077;42.716;23.344;2023-03-22T14:28:36;95177.38;;;15.95;52.39
64668;BME280;51077;42.716;23.344;2023-03-22T14:31:06;95170.53;;;15.89;52.58
64668;BME280;51077;42.716;23.344;2023-03-22T14:33:34;95173.13;;;15.87;52.45